sensor_id;sensor_type;location;lat;lon;timestamp;P1;durP1;ratioP1;P2;durP2;ratioP2
48859;SDS011;34679;51.436;-2.518;2022-10-15T00:00:53;10.32;;;3.35;;
48859;SDS011;34679;51.436;-2.518;2022-10-15T00:03:29;11.35;;;3.78;;
48859;SDS011;34679;51.436;-2.518;2022-10-15T00:05:55;8.05;;;3.28;;
48859;SDS011;34679;51.436;-2.518;2022-10-15T00:08:21;12.18;;;3.88;;
48859;SDS011;34679;51.436;-2.518;2022-10-15T00:10:46;8.90;;;3.35;;
48859;SDS011;34679;51.436;-2.518;2022-10-15T00:13:12;11.20;;;3.65;;
48859;SDS011;34679;51.436;-2.518;2022-10-15T00:15:37;18.65;;;4.60;;
48859;SDS011;34679;51.436;-2.518;2022-10-15T00:18:03;9.38;;;3.90;;
48859;SDS011;34679;51.436;-2.518;2022-10-15T00:20:29;8.30;;;3.50;;
48859;SDS011;34679;51.436;-2.518;2022-10-15T00:22:55;12.30;;;3.80;;
48859;SDS011;34679;51.436;-2.518;2022-10-15T00:25:21;12.23;;;3.92;;
48859;SDS011;34679;51.436;-2.518;2022-10-15T00:27:47;8.48;;;4.68;;
48859;SDS011;34679;51.436;-2.518;2022-10-15T00:30:12;16.13;;;4.20;;
48859;SDS011;34679;51.436;-2.518;2022-10-15T00:32:38;13.70;;;4.00;;
48859;SDS011;34679;51.436;-2.518;2022-10-15T00:35:04;13.35;;;4.38;;
48859;SDS011;34679;51.436;-2.518;2022-10-15T00:37:30;7.82;;;3.67;;
48859;SDS011;34679;51.436;-2.518;2022-10-15T00:39:55;15.52;;;5.32;;
48859;SDS011;34679;51.436;-2.518;2022-10-15T00:42:21;7.68;;;3.35;;
48859;SDS011;34679;51.436;-2.518;2022-10-15T00:47:26;12.95;;;3.22;;
48859;SDS011;34679;51.436;-2.518;2022-10-15T00:52:38;5.45;;;3.00;;
48859;SDS011;34679;51.436;-2.518;2022-10-15T00:55:07;9.57;;;3.42;;
48859;SDS011;34679;51.436;-2.518;2022-10-15T00:57:52;8.82;;;3.53;;
48859;SDS011;34679;51.436;-2.518;2022-10-15T01:00:19;10.20;;;3.28;;
48859;SDS011;34679;51.436;-2.518;2022-10-15T01:02:45;8.95;;;3.08;;
48859;SDS011;34679;51.436;-2.518;2022-10-15T01:05:11;8.23;;;3.03;;
48859;SDS011;34679;51.436;-2.518;2022-10-15T01:07:38;8.82;;;2.75;;
48859;SDS011;34679;51.436;-2.518;2022-10-15T01:10:05;9.10;;;2.90;;
48859;SDS011;34679;51.436;-2.518;2022-10-15T01:12:50;10.75;;;3.33;;
48859;SDS011;34679;51.436;-2.518;2022-10-15T01:15:24;13.35;;;3.08;;
48859;SDS011;34679;51.436;-2.518;2022-10-15T01:18:13;11.07;;;3.70;;
48859;SDS011;34679;51.436;-2.518;2022-10-15T01:24:04;12.35;;;2.95;;
48859;SDS011;34679;51.436;-2.518;2022-10-15T01:32:29;15.63;;;3.15;;
48859;SDS011;34679;51.436;-2.518;2022-10-15T01:40:46;12.10;;;2.78;;
48859;SDS011;34679;51.436;-2.518;2022-10-15T01:43:23;12.13;;;3.17;;
48859;SDS011;34679;51.436;-2.518;2022-10-15T01:45:57;17.42;;;4.65;;
48859;SDS011;34679;51.436;-2.518;2022-10-15T01:48:26;25.27;;;3.85;;
48859;SDS011;34679;51.436;-2.518;2022-10-15T01:50:56;8.18;;;2.63;;
48859;SDS011;34679;51.436;-2.518;2022-10-15T01:53:26;7.47;;;2.42;;
48859;SDS011;34679;51.436;-2.518;2022-10-15T01:55:54;15.43;;;3.63;;
48859;SDS011;34679;51.436;-2.518;2022-10-15T01:58:23;6.70;;;2.42;;
48859;SDS011;34679;51.436;-2.518;2022-10-15T02:00:50;10.57;;;2.20;;
48859;SDS011;34679;51.436;-2.518;2022-10-15T02:03:18;10.00;;;2.17;;
48859;SDS011;34679;51.436;-2.518;2022-10-15T02:05:46;15.63;;;3.03;;
48859;SDS011;34679;51.436;-2.518;2022-10-15T02:11:03;10.07;;;2.50;;
48859;SDS011;34679;51.436;-2.518;2022-10-15T02:16:46;11.13;;;2.72;;
48859;SDS011;34679;51.436;-2.518;2022-10-15T02:19:21;6.50;;;2.60;;
48859;SDS011;34679;51.436;-2.518;2022-10-15T02:22:16;8.30;;;2.00;;
48859;SDS011;34679;51.436;-2.518;2022-10-15T02:24:47;14.02;;;2.30;;
48859;SDS011;34679;51.436;-2.518;2022-10-15T02:27:14;8.18;;;2.20;;
48859;SDS011;34679;51.436;-2.518;2022-10-15T02:29:42;7.45;;;2.03;;
48859;SDS011;34679;51.436;-2.518;2022-10-15T02:32:11;9.38;;;2.40;;
48859;SDS011;34679;51.436;-2.518;2022-10-15T02:34:39;12.05;;;2.40;;
48859;SDS011;34679;51.436;-2.518;2022-10-15T02:37:05;7.97;;;2.92;;
48859;SDS011;34679;51.436;-2.518;2022-10-15T02:39:32;9.75;;;2.15;;
48859;SDS011;34679;51.436;-2.518;2022-10-15T02:41:58;8.65;;;2.03;;
48859;SDS011;34679;51.436;-2.518;2022-10-15T02:44:25;6.78;;;2.08;;
48859;SDS011;34679;51.436;-2.518;2022-10-15T02:46:51;7.85;;;2.53;;
48859;SDS011;34679;51.436;-2.518;2022-10-15T02:49:16;10.05;;;2.03;;
48859;SDS011;34679;51.436;-2.518;2022-10-15T02:51:42;8.18;;;2.28;;
48859;SDS011;34679;51.436;-2.518;2022-10-15T02:54:08;4.95;;;1.83;;
48859;SDS011;34679;51.436;-2.518;2022-10-15T02:56:34;8.07;;;1.90;;
48859;SDS011;34679;51.436;-2.518;2022-10-15T02:59:00;11.60;;;2.00;;
48859;SDS011;34679;51.436;-2.518;2022-10-15T03:01:26;5.97;;;1.92;;
48859;SDS011;34679;51.436;-2.518;2022-10-15T03:03:51;6.93;;;2.00;;
48859;SDS011;34679;51.436;-2.518;2022-10-15T03:06:17;6.47;;;1.70;;
48859;SDS011;34679;51.436;-2.518;2022-10-15T03:08:43;5.90;;;1.63;;
48859;SDS011;34679;51.436;-2.518;2022-10-15T03:11:09;4.47;;;1.33;;
48859;SDS011;34679;51.436;-2.518;2022-10-15T03:13:36;6.75;;;1.60;;
48859;SDS011;34679;51.436;-2.518;2022-10-15T03:16:06;8.10;;;1.92;;
48859;SDS011;34679;51.436;-2.518;2022-10-15T03:18:32;9.63;;;1.60;;
48859;SDS011;34679;51.436;-2.518;2022-10-15T03:20:58;5.35;;;1.80;;
48859;SDS011;34679;51.436;-2.518;2022-10-15T03:23:24;5.55;;;1.70;;
48859;SDS011;34679;51.436;-2.518;2022-10-15T03:25:50;11.45;;;1.95;;
48859;SDS011;34679;51.436;-2.518;2022-10-15T03:28:16;3.78;;;1.63;;
48859;SDS011;34679;51.436;-2.518;2022-10-15T03:30:42;8.05;;;1.60;;
48859;SDS011;34679;51.436;-2.518;2022-10-15T03:33:08;6.47;;;1.60;;
48859;SDS011;34679;51.436;-2.518;2022-10-15T03:35:34;4.72;;;1.30;;
48859;SDS011;34679;51.436;-2.518;2022-10-15T03:38:00;5.88;;;1.67;;
48859;SDS011;34679;51.436;-2.518;2022-10-15T03:40:26;7.88;;;3.45;;
48859;SDS011;34679;51.436;-2.518;2022-10-15T03:42:51;8.15;;;2.25;;
48859;SDS011;34679;51.436;-2.518;2022-10-15T03:45:18;9.77;;;2.30;;
48859;SDS011;34679;51.436;-2.518;2022-10-15T03:47:44;9.38;;;2.35;;
48859;SDS011;34679;51.436;-2.518;2022-10-15T03:50:10;11.63;;;3.63;;
48859;SDS011;34679;51.436;-2.518;2022-10-15T03:52:36;7.30;;;2.63;;
48859;SDS011;34679;51.436;-2.518;2022-10-15T03:55:03;5.63;;;2.20;;
48859;SDS011;34679;51.436;-2.518;2022-10-15T03:57:29;10.68;;;2.40;;
48859;SDS011;34679;51.436;-2.518;2022-10-15T03:59:55;5.97;;;2.30;;
48859;SDS011;34679;51.436;-2.518;2022-10-15T04:02:21;5.55;;;2.60;;
48859;SDS011;34679;51.436;-2.518;2022-10-15T04:04:47;11.77;;;3.35;;
48859;SDS011;34679;51.436;-2.518;2022-10-15T04:07:17;6.25;;;2.40;;
48859;SDS011;34679;51.436;-2.518;2022-10-15T04:09:43;7.30;;;2.40;;
48859;SDS011;34679;51.436;-2.518;2022-10-15T04:12:09;3.58;;;2.08;;
48859;SDS011;34679;51.436;-2.518;2022-10-15T04:14:34;6.63;;;2.10;;
48859;SDS011;34679;51.436;-2.518;2022-10-15T04:17:00;6.93;;;2.60;;
48859;SDS011;34679;51.436;-2.518;2022-10-15T04:19:26;5.75;;;2.03;;
48859;SDS011;34679;51.436;-2.518;2022-10-15T04:21:51;4.85;;;1.55;;
48859;SDS011;34679;51.436;-2.518;2022-10-15T04:24:17;3.60;;;1.50;;
48859;SDS011;34679;51.436;-2.518;2022-10-15T04:26:43;3.65;;;1.35;;
48859;SDS011;34679;51.436;-2.518;2022-10-15T04:29:09;3.25;;;1.67;;
48859;SDS011;34679;51.436;-2.518;2022-10-15T04:31:34;4.82;;;1.42;;
48859;SDS011;34679;51.436;-2.518;2022-10-15T04:34:01;3.83;;;1.60;;
48859;SDS011;34679;51.436;-2.518;2022-10-15T04:36:28;6.57;;;1.60;;
48859;SDS011;34679;51.436;-2.518;2022-10-15T04:38:53;5.00;;;1.80;;
48859;SDS011;34679;51.436;-2.518;2022-10-15T04:41:19;5.50;;;2.10;;
48859;SDS011;34679;51.436;-2.518;2022-10-15T04:43:45;5.50;;;1.52;;
48859;SDS011;34679;51.436;-2.518;2022-10-15T04:46:10;3.53;;;1.42;;
48859;SDS011;34679;51.436;-2.518;2022-10-15T04:48:37;3.08;;;1.35;;
48859;SDS011;34679;51.436;-2.518;2022-10-15T04:51:06;5.55;;;1.35;;
48859;SDS011;34679;51.436;-2.518;2022-10-15T04:53:36;4.22;;;1.52;;
48859;SDS011;34679;51.436;-2.518;2022-10-15T04:56:03;6.30;;;1.20;;
48859;SDS011;34679;51.436;-2.518;2022-10-15T04:58:30;4.35;;;1.25;;
48859;SDS011;34679;51.436;-2.518;2022-10-15T05:01:07;4.47;;;1.20;;
48859;SDS011;34679;51.436;-2.518;2022-10-15T05:03:37;5.32;;;1.25;;
48859;SDS011;34679;51.436;-2.518;2022-10-15T05:06:05;5.78;;;1.50;;
48859;SDS011;34679;51.436;-2.518;2022-10-15T05:08:33;2.33;;;1.00;;
48859;SDS011;34679;51.436;-2.518;2022-10-15T05:11:03;2.20;;;1.70;;
48859;SDS011;34679;51.436;-2.518;2022-10-15T05:13:30;3.00;;;1.05;;
48859;SDS011;34679;51.436;-2.518;2022-10-15T05:15:56;1.60;;;0.90;;
48859;SDS011;34679;51.436;-2.518;2022-10-15T05:18:22;3.80;;;1.10;;
48859;SDS011;34679;51.436;-2.518;2022-10-15T05:20:48;2.33;;;1.20;;
48859;SDS011;34679;51.436;-2.518;2022-10-15T05:23:14;4.20;;;0.98;;
48859;SDS011;34679;51.436;-2.518;2022-10-15T05:25:40;7.28;;;1.08;;
48859;SDS011;34679;51.436;-2.518;2022-10-15T05:28:06;1.95;;;1.00;;
48859;SDS011;34679;51.436;-2.518;2022-10-15T05:30:33;1.02;;;1.00;;
48859;SDS011;34679;51.436;-2.518;2022-10-15T05:32:59;2.53;;;0.80;;
48859;SDS011;34679;51.436;-2.518;2022-10-15T05:35:25;5.85;;;1.10;;
48859;SDS011;34679;51.436;-2.518;2022-10-15T05:37:51;4.88;;;0.90;;
48859;SDS011;34679;51.436;-2.518;2022-10-15T05:40:16;6.25;;;0.90;;
48859;SDS011;34679;51.436;-2.518;2022-10-15T05:42:42;3.72;;;0.80;;
48859;SDS011;34679;51.436;-2.518;2022-10-15T05:45:08;1.58;;;0.73;;
48859;SDS011;34679;51.436;-2.518;2022-10-15T05:47:34;1.80;;;0.63;;
48859;SDS011;34679;51.436;-2.518;2022-10-15T05:50:00;2.72;;;0.77;;
48859;SDS011;34679;51.436;-2.518;2022-10-15T05:52:26;3.13;;;0.60;;
48859;SDS011;34679;51.436;-2.518;2022-10-15T05:54:52;1.52;;;1.05;;
48859;SDS011;34679;51.436;-2.518;2022-10-15T05:57:17;3.60;;;1.88;;
48859;SDS011;34679;51.436;-2.518;2022-10-15T05:59:43;4.38;;;0.90;;
48859;SDS011;34679;51.436;-2.518;2022-10-15T06:02:09;2.67;;;0.50;;
48859;SDS011;34679;51.436;-2.518;2022-10-15T06:04:39;2.83;;;0.80;;
48859;SDS011;34679;51.436;-2.518;2022-10-15T06:07:08;1.67;;;0.50;;
48859;SDS011;34679;51.436;-2.518;2022-10-15T06:09:34;0.75;;;0.57;;
48859;SDS011;34679;51.436;-2.518;2022-10-15T06:12:00;2.90;;;0.60;;
48859;SDS011;34679;51.436;-2.518;2022-10-15T06:14:26;1.80;;;0.50;;
48859;SDS011;34679;51.436;-2.518;2022-10-15T06:16:51;2.78;;;0.63;;
48859;SDS011;34679;51.436;-2.518;2022-10-15T06:19:19;2.38;;;0.50;;
48859;SDS011;34679;51.436;-2.518;2022-10-15T06:21:44;1.42;;;0.50;;
48859;SDS011;34679;51.436;-2.518;2022-10-15T06:24:10;1.77;;;0.70;;
48859;SDS011;34679;51.436;-2.518;2022-10-15T06:26:36;3.13;;;0.50;;
48859;SDS011;34679;51.436;-2.518;2022-10-15T06:29:01;4.50;;;0.65;;
48859;SDS011;34679;51.436;-2.518;2022-10-15T06:31:27;0.50;;;0.38;;
48859;SDS011;34679;51.436;-2.518;2022-10-15T06:33:53;3.03;;;0.50;;
48859;SDS011;34679;51.436;-2.518;2022-10-15T06:36:19;1.52;;;0.30;;
48859;SDS011;34679;51.436;-2.518;2022-10-15T06:38:45;3.92;;;0.65;;
48859;SDS011;34679;51.436;-2.518;2022-10-15T06:41:11;1.40;;;0.40;;
48859;SDS011;34679;51.436;-2.518;2022-10-15T06:43:37;1.17;;;0.43;;
48859;SDS011;34679;51.436;-2.518;2022-10-15T06:46:03;1.65;;;0.30;;
48859;SDS011;34679;51.436;-2.518;2022-10-15T06:48:30;1.52;;;0.40;;
48859;SDS011;34679;51.436;-2.518;2022-10-15T06:51:00;1.50;;;0.45;;
48859;SDS011;34679;51.436;-2.518;2022-10-15T06:53:26;5.78;;;0.52;;
48859;SDS011;34679;51.436;-2.518;2022-10-15T06:55:57;2.78;;;0.50;;
48859;SDS011;34679;51.436;-2.518;2022-10-15T06:58:24;2.92;;;0.40;;
48859;SDS011;34679;51.436;-2.518;2022-10-15T07:00:50;2.75;;;0.30;;
48859;SDS011;34679;51.436;-2.518;2022-10-15T07:03:16;1.48;;;0.50;;
48859;SDS011;34679;51.436;-2.518;2022-10-15T07:05:42;4.55;;;0.50;;
48859;SDS011;34679;51.436;-2.518;2022-10-15T07:08:07;0.50;;;0.25;;
48859;SDS011;34679;51.436;-2.518;2022-10-15T07:10:33;1.33;;;0.47;;
48859;SDS011;34679;51.436;-2.518;2022-10-15T07:12:59;3.38;;;0.50;;
48859;SDS011;34679;51.436;-2.518;2022-10-15T07:15:25;0.43;;;0.28;;
48859;SDS011;34679;51.436;-2.518;2022-10-15T07:17:52;0.77;;;0.30;;
48859;SDS011;34679;51.436;-2.518;2022-10-15T07:22:55;2.05;;;0.40;;
48859;SDS011;34679;51.436;-2.518;2022-10-15T07:25:22;2.88;;;0.40;;
48859;SDS011;34679;51.436;-2.518;2022-10-15T07:27:48;1.83;;;0.60;;
48859;SDS011;34679;51.436;-2.518;2022-10-15T07:30:14;6.65;;;0.70;;
48859;SDS011;34679;51.436;-2.518;2022-10-15T07:32:40;5.38;;;0.60;;
48859;SDS011;34679;51.436;-2.518;2022-10-15T07:35:05;4.18;;;0.55;;
48859;SDS011;34679;51.436;-2.518;2022-10-15T07:37:32;0.93;;;0.40;;
48859;SDS011;34679;51.436;-2.518;2022-10-15T07:39:58;4.85;;;0.60;;
48859;SDS011;34679;51.436;-2.518;2022-10-15T07:42:23;3.58;;;0.50;;
48859;SDS011;34679;51.436;-2.518;2022-10-15T07:44:49;3.25;;;0.50;;
48859;SDS011;34679;51.436;-2.518;2022-10-15T07:47:15;1.67;;;0.40;;
48859;SDS011;34679;51.436;-2.518;2022-10-15T07:49:41;2.97;;;0.57;;
48859;SDS011;34679;51.436;-2.518;2022-10-15T07:52:06;1.85;;;0.40;;
48859;SDS011;34679;51.436;-2.518;2022-10-15T07:54:32;1.67;;;0.32;;
48859;SDS011;34679;51.436;-2.518;2022-10-15T07:56:58;3.95;;;0.50;;
48859;SDS011;34679;51.436;-2.518;2022-10-15T07:59:24;3.80;;;0.30;;
48859;SDS011;34679;51.436;-2.518;2022-10-15T08:01:50;2.80;;;0.70;;
48859;SDS011;34679;51.436;-2.518;2022-10-15T08:04:16;3.42;;;0.60;;
48859;SDS011;34679;51.436;-2.518;2022-10-15T08:06:44;4.13;;;0.40;;
48859;SDS011;34679;51.436;-2.518;2022-10-15T08:09:10;4.78;;;0.60;;
48859;SDS011;34679;51.436;-2.518;2022-10-15T08:11:36;2.63;;;0.40;;
48859;SDS011;34679;51.436;-2.518;2022-10-15T08:14:01;3.30;;;0.70;;
48859;SDS011;34679;51.436;-2.518;2022-10-15T08:16:28;2.83;;;0.47;;
48859;SDS011;34679;51.436;-2.518;2022-10-15T08:18:53;0.93;;;0.40;;
48859;SDS011;34679;51.436;-2.518;2022-10-15T08:21:19;1.92;;;0.40;;
48859;SDS011;34679;51.436;-2.518;2022-10-15T08:23:45;2.83;;;0.68;;
48859;SDS011;34679;51.436;-2.518;2022-10-15T08:26:11;2.38;;;0.40;;
48859;SDS011;34679;51.436;-2.518;2022-10-15T08:28:37;3.63;;;0.50;;
48859;SDS011;34679;51.436;-2.518;2022-10-15T08:31:03;3.20;;;0.50;;
48859;SDS011;34679;51.436;-2.518;2022-10-15T08:33:29;2.33;;;0.55;;
48859;SDS011;34679;51.436;-2.518;2022-10-15T08:35:55;2.22;;;0.50;;
48859;SDS011;34679;51.436;-2.518;2022-10-15T08:38:21;2.00;;;0.98;;
48859;SDS011;34679;51.436;-2.518;2022-10-15T08:40:51;4.22;;;0.50;;
48859;SDS011;34679;51.436;-2.518;2022-10-15T08:43:24;1.58;;;0.50;;
48859;SDS011;34679;51.436;-2.518;2022-10-15T08:46:00;2.67;;;0.57;;
48859;SDS011;34679;51.436;-2.518;2022-10-15T08:48:39;3.22;;;0.60;;
48859;SDS011;34679;51.436;-2.518;2022-10-15T08:51:18;5.20;;;0.65;;
48859;SDS011;34679;51.436;-2.518;2022-10-15T08:53:51;2.75;;;1.15;;
48859;SDS011;34679;51.436;-2.518;2022-10-15T08:56:21;3.70;;;0.65;;
48859;SDS011;34679;51.436;-2.518;2022-10-15T09:01:57;2.00;;;0.45;;
48859;SDS011;34679;51.436;-2.518;2022-10-15T09:04:30;3.33;;;0.70;;
48859;SDS011;34679;51.436;-2.518;2022-10-15T09:07:14;3.65;;;0.60;;
48859;SDS011;34679;51.436;-2.518;2022-10-15T09:09:55;2.05;;;0.70;;
48859;SDS011;34679;51.436;-2.518;2022-10-15T09:12:35;2.15;;;0.52;;
48859;SDS011;34679;51.436;-2.518;2022-10-15T09:15:22;3.35;;;0.70;;
48859;SDS011;34679;51.436;-2.518;2022-10-15T09:17:51;3.60;;;0.70;;
48859;SDS011;34679;51.436;-2.518;2022-10-15T09:20:25;3.33;;;0.70;;
48859;SDS011;34679;51.436;-2.518;2022-10-15T09:22:56;3.20;;;0.90;;
48859;SDS011;34679;51.436;-2.518;2022-10-15T09:25:22;5.25;;;0.80;;
48859;SDS011;34679;51.436;-2.518;2022-10-15T09:27:49;5.53;;;1.23;;
48859;SDS011;34679;51.436;-2.518;2022-10-15T09:30:25;5.18;;;1.27;;
48859;SDS011;34679;51.436;-2.518;2022-10-15T09:41:42;9.40;;;1.30;;
48859;SDS011;34679;51.436;-2.518;2022-10-15T09:44:33;8.90;;;1.25;;
48859;SDS011;34679;51.436;-2.518;2022-10-15T09:47:16;6.07;;;1.10;;
48859;SDS011;34679;51.436;-2.518;2022-10-15T09:49:47;7.20;;;1.58;;
48859;SDS011;34679;51.436;-2.518;2022-10-15T09:52:19;9.50;;;1.50;;
48859;SDS011;34679;51.436;-2.518;2022-10-15T09:57:30;8.75;;;1.40;;
48859;SDS011;34679;51.436;-2.518;2022-10-15T09:59:59;8.43;;;1.85;;
48859;SDS011;34679;51.436;-2.518;2022-10-15T10:02:28;5.18;;;1.27;;
48859;SDS011;34679;51.436;-2.518;2022-10-15T10:04:54;7.18;;;1.60;;
48859;SDS011;34679;51.436;-2.518;2022-10-15T10:07:30;9.93;;;1.30;;
48859;SDS011;34679;51.436;-2.518;2022-10-15T10:10:04;7.35;;;1.10;;
48859;SDS011;34679;51.436;-2.518;2022-10-15T10:12:46;8.70;;;1.52;;
48859;SDS011;34679;51.436;-2.518;2022-10-15T10:18:00;8.43;;;1.73;;
48859;SDS011;34679;51.436;-2.518;2022-10-15T10:20:29;10.82;;;1.10;;
48859;SDS011;34679;51.436;-2.518;2022-10-15T10:22:57;6.28;;;1.02;;
48859;SDS011;34679;51.436;-2.518;2022-10-15T10:27:51;3.75;;;1.00;;
48859;SDS011;34679;51.436;-2.518;2022-10-15T10:30:18;5.93;;;1.40;;
48859;SDS011;34679;51.436;-2.518;2022-10-15T10:32:44;10.10;;;1.20;;
48859;SDS011;34679;51.436;-2.518;2022-10-15T10:35:21;10.45;;;1.42;;
48859;SDS011;34679;51.436;-2.518;2022-10-15T10:37:48;8.57;;;1.38;;
48859;SDS011;34679;51.436;-2.518;2022-10-15T10:40:23;4.97;;;1.00;;
48859;SDS011;34679;51.436;-2.518;2022-10-15T10:45:51;6.38;;;1.10;;
48859;SDS011;34679;51.436;-2.518;2022-10-15T10:48:33;7.13;;;1.38;;
48859;SDS011;34679;51.436;-2.518;2022-10-15T10:51:13;10.07;;;1.30;;
48859;SDS011;34679;51.436;-2.518;2022-10-15T10:53:49;11.35;;;1.52;;
48859;SDS011;34679;51.436;-2.518;2022-10-15T11:01:46;8.07;;;1.30;;
48859;SDS011;34679;51.436;-2.518;2022-10-15T11:04:12;6.82;;;1.20;;
48859;SDS011;34679;51.436;-2.518;2022-10-15T11:09:31;8.25;;;2.20;;
48859;SDS011;34679;51.436;-2.518;2022-10-15T11:14:53;7.18;;;1.15;;
48859;SDS011;34679;51.436;-2.518;2022-10-15T11:28:12;7.38;;;1.40;;
48859;SDS011;34679;51.436;-2.518;2022-10-15T11:57:50;14.02;;;1.73;;
48859;SDS011;34679;51.436;-2.518;2022-10-15T12:00:32;10.32;;;2.20;;
48859;SDS011;34679;51.436;-2.518;2022-10-15T12:03:06;8.90;;;1.45;;
48859;SDS011;34679;51.436;-2.518;2022-10-15T12:05:52;12.40;;;1.52;;
48859;SDS011;34679;51.436;-2.518;2022-10-15T12:08:21;11.73;;;1.45;;
48859;SDS011;34679;51.436;-2.518;2022-10-15T12:24:08;14.38;;;2.38;;
48859;SDS011;34679;51.436;-2.518;2022-10-15T12:27:27;8.00;;;1.50;;
48859;SDS011;34679;51.436;-2.518;2022-10-15T12:32:37;11.45;;;2.15;;
48859;SDS011;34679;51.436;-2.518;2022-10-15T12:38:24;10.90;;;2.05;;
48859;SDS011;34679;51.436;-2.518;2022-10-15T12:40:55;12.68;;;2.00;;
48859;SDS011;34679;51.436;-2.518;2022-10-15T12:43:26;13.63;;;1.67;;
48859;SDS011;34679;51.436;-2.518;2022-10-15T12:45:59;8.15;;;1.63;;
48859;SDS011;34679;51.436;-2.518;2022-10-15T12:48:36;13.52;;;2.88;;
48859;SDS011;34679;51.436;-2.518;2022-10-15T12:51:48;12.07;;;2.08;;
48859;SDS011;34679;51.436;-2.518;2022-10-15T12:53:50;8.10;;;1.50;;
48859;SDS011;34679;51.436;-2.518;2022-10-15T12:58:49;8.55;;;1.60;;
48859;SDS011;34679;51.436;-2.518;2022-10-15T13:08:50;6.32;;;1.52;;
48859;SDS011;34679;51.436;-2.518;2022-10-15T13:11:27;14.13;;;2.45;;
48859;SDS011;34679;51.436;-2.518;2022-10-15T13:16:46;13.25;;;2.45;;
48859;SDS011;34679;51.436;-2.518;2022-10-15T13:21:50;14.00;;;2.47;;
48859;SDS011;34679;51.436;-2.518;2022-10-15T13:24:25;12.63;;;2.17;;
48859;SDS011;34679;51.436;-2.518;2022-10-15T13:26:52;11.15;;;1.70;;
48859;SDS011;34679;51.436;-2.518;2022-10-15T13:29:20;8.68;;;1.42;;
48859;SDS011;34679;51.436;-2.518;2022-10-15T13:31:50;13.68;;;2.67;;
48859;SDS011;34679;51.436;-2.518;2022-10-15T13:36:50;12.23;;;2.08;;
48859;SDS011;34679;51.436;-2.518;2022-10-15T13:39:31;14.85;;;1.95;;
48859;SDS011;34679;51.436;-2.518;2022-10-15T13:42:06;7.28;;;1.60;;
48859;SDS011;34679;51.436;-2.518;2022-10-15T13:44:39;14.25;;;2.85;;
48859;SDS011;34679;51.436;-2.518;2022-10-15T13:47:40;9.10;;;1.80;;
48859;SDS011;34679;51.436;-2.518;2022-10-15T13:52:50;7.20;;;1.85;;
48859;SDS011;34679;51.436;-2.518;2022-10-15T13:55:31;15.45;;;2.78;;
48859;SDS011;34679;51.436;-2.518;2022-10-15T14:00:55;9.85;;;3.00;;
48859;SDS011;34679;51.436;-2.518;2022-10-15T14:03:35;13.68;;;2.30;;
48859;SDS011;34679;51.436;-2.518;2022-10-15T14:08:50;5.20;;;1.50;;
48859;SDS011;34679;51.436;-2.518;2022-10-15T14:11:17;14.55;;;1.90;;
48859;SDS011;34679;51.436;-2.518;2022-10-15T14:14:01;15.10;;;2.35;;
48859;SDS011;34679;51.436;-2.518;2022-10-15T14:21:31;20.60;;;2.40;;
48859;SDS011;34679;51.436;-2.518;2022-10-15T14:24:01;10.73;;;2.00;;
48859;SDS011;34679;51.436;-2.518;2022-10-15T14:26:31;12.70;;;2.00;;
48859;SDS011;34679;51.436;-2.518;2022-10-15T14:28:58;10.27;;;2.22;;
48859;SDS011;34679;51.436;-2.518;2022-10-15T14:31:29;15.10;;;3.08;;
48859;SDS011;34679;51.436;-2.518;2022-10-15T14:33:57;18.02;;;2.20;;
48859;SDS011;34679;51.436;-2.518;2022-10-15T14:36:24;19.90;;;2.08;;
48859;SDS011;34679;51.436;-2.518;2022-10-15T14:42:04;8.85;;;2.20;;
48859;SDS011;34679;51.436;-2.518;2022-10-15T14:44:47;15.60;;;3.38;;
48859;SDS011;34679;51.436;-2.518;2022-10-15T14:47:29;13.63;;;2.13;;
48859;SDS011;34679;51.436;-2.518;2022-10-15T14:49:57;12.40;;;1.92;;
48859;SDS011;34679;51.436;-2.518;2022-10-15T14:52:25;11.57;;;2.17;;
48859;SDS011;34679;51.436;-2.518;2022-10-15T14:55:07;14.75;;;1.83;;
48859;SDS011;34679;51.436;-2.518;2022-10-15T14:57:40;10.20;;;1.92;;
48859;SDS011;34679;51.436;-2.518;2022-10-15T15:00:53;13.57;;;2.45;;
48859;SDS011;34679;51.436;-2.518;2022-10-15T15:03:03;17.80;;;3.13;;
48859;SDS011;34679;51.436;-2.518;2022-10-15T15:05:30;15.23;;;2.97;;
48859;SDS011;34679;51.436;-2.518;2022-10-15T15:08:09;12.35;;;1.95;;
48859;SDS011;34679;51.436;-2.518;2022-10-15T15:10:34;13.82;;;2.53;;
48859;SDS011;34679;51.436;-2.518;2022-10-15T15:13:00;15.70;;;2.92;;
48859;SDS011;34679;51.436;-2.518;2022-10-15T15:15:26;14.93;;;2.53;;
48859;SDS011;34679;51.436;-2.518;2022-10-15T15:17:51;17.10;;;2.38;;
48859;SDS011;34679;51.436;-2.518;2022-10-15T15:20:18;17.63;;;2.55;;
48859;SDS011;34679;51.436;-2.518;2022-10-15T15:22:48;17.80;;;2.35;;
48859;SDS011;34679;51.436;-2.518;2022-10-15T15:25:17;10.98;;;2.30;;
48859;SDS011;34679;51.436;-2.518;2022-10-15T15:27:45;8.15;;;1.40;;
48859;SDS011;34679;51.436;-2.518;2022-10-15T15:30:19;15.15;;;2.13;;
48859;SDS011;34679;51.436;-2.518;2022-10-15T15:32:46;13.07;;;2.50;;
48859;SDS011;34679;51.436;-2.518;2022-10-15T15:35:23;8.88;;;2.25;;
48859;SDS011;34679;51.436;-2.518;2022-10-15T15:37:52;12.68;;;2.35;;
48859;SDS011;34679;51.436;-2.518;2022-10-15T15:40:18;13.30;;;2.17;;
48859;SDS011;34679;51.436;-2.518;2022-10-15T15:42:44;10.52;;;2.08;;
48859;SDS011;34679;51.436;-2.518;2022-10-15T15:45:15;12.95;;;2.03;;
48859;SDS011;34679;51.436;-2.518;2022-10-15T15:47:42;13.05;;;2.38;;
48859;SDS011;34679;51.436;-2.518;2022-10-15T15:50:08;11.95;;;1.70;;
48859;SDS011;34679;51.436;-2.518;2022-10-15T15:52:33;11.80;;;2.63;;
48859;SDS011;34679;51.436;-2.518;2022-10-15T15:54:59;19.00;;;2.50;;
48859;SDS011;34679;51.436;-2.518;2022-10-15T15:57:25;10.82;;;1.88;;
48859;SDS011;34679;51.436;-2.518;2022-10-15T15:59:51;14.93;;;2.30;;
48859;SDS011;34679;51.436;-2.518;2022-10-15T16:02:16;14.57;;;2.50;;
48859;SDS011;34679;51.436;-2.518;2022-10-15T16:04:42;16.20;;;2.33;;
48859;SDS011;34679;51.436;-2.518;2022-10-15T16:07:09;17.63;;;2.58;;
48859;SDS011;34679;51.436;-2.518;2022-10-15T16:09:35;8.73;;;1.80;;
48859;SDS011;34679;51.436;-2.518;2022-10-15T16:12:01;15.68;;;2.45;;
48859;SDS011;34679;51.436;-2.518;2022-10-15T16:14:26;10.07;;;2.40;;
48859;SDS011;34679;51.436;-2.518;2022-10-15T16:16:52;10.52;;;2.13;;
48859;SDS011;34679;51.436;-2.518;2022-10-15T16:19:18;8.35;;;1.85;;
48859;SDS011;34679;51.436;-2.518;2022-10-15T16:21:43;14.00;;;2.20;;
48859;SDS011;34679;51.436;-2.518;2022-10-15T16:24:09;13.75;;;2.38;;
48859;SDS011;34679;51.436;-2.518;2022-10-15T16:26:35;10.07;;;2.17;;
48859;SDS011;34679;51.436;-2.518;2022-10-15T16:29:00;12.15;;;2.85;;
48859;SDS011;34679;51.436;-2.518;2022-10-15T16:31:26;11.90;;;2.08;;
48859;SDS011;34679;51.436;-2.518;2022-10-15T16:34:00;13.30;;;2.10;;
48859;SDS011;34679;51.436;-2.518;2022-10-15T16:36:26;18.40;;;2.60;;
48859;SDS011;34679;51.436;-2.518;2022-10-15T16:38:52;14.07;;;2.05;;
48859;SDS011;34679;51.436;-2.518;2022-10-15T16:41:18;9.35;;;1.80;;
48859;SDS011;34679;51.436;-2.518;2022-10-15T16:43:44;12.88;;;2.33;;
48859;SDS011;34679;51.436;-2.518;2022-10-15T16:46:11;8.40;;;1.80;;
48859;SDS011;34679;51.436;-2.518;2022-10-15T16:48:37;8.10;;;1.85;;
48859;SDS011;34679;51.436;-2.518;2022-10-15T16:51:04;7.07;;;1.77;;
48859;SDS011;34679;51.436;-2.518;2022-10-15T16:53:33;12.85;;;2.25;;
48859;SDS011;34679;51.436;-2.518;2022-10-15T16:56:04;12.07;;;2.33;;
48859;SDS011;34679;51.436;-2.518;2022-10-15T16:58:35;16.50;;;2.97;;
48859;SDS011;34679;51.436;-2.518;2022-10-15T17:01:02;13.45;;;2.38;;
48859;SDS011;34679;51.436;-2.518;2022-10-15T17:03:31;12.93;;;2.15;;
48859;SDS011;34679;51.436;-2.518;2022-10-15T17:05:59;14.32;;;2.35;;
48859;SDS011;34679;51.436;-2.518;2022-10-15T17:08:27;9.43;;;1.55;;
48859;SDS011;34679;51.436;-2.518;2022-10-15T17:10:55;11.00;;;2.65;;
48859;SDS011;34679;51.436;-2.518;2022-10-15T17:13:20;13.10;;;1.75;;
48859;SDS011;34679;51.436;-2.518;2022-10-15T17:15:46;14.20;;;2.30;;